Tracer — PHAC — position and weather

sailwx.info

Track history (hours):
 
Tides and Currents Weather Stations Pressure Air Temp Water Temp Dewpoint Dewpoint Depression Visibility Wind Speed Wind Dir Waves Ship Positions

Tracer

Last reported at 2016-Jun-30 13:32 UTC. Time now 2016-Jun-30 14:08 UTC.
Position N 51°17' E 004°22'.

Length 101 m; beam 20 m.

Type: Cargo ship. MMSI: 245949000.

Date/timePositionNaut miles runAvg speedWind from/ knotsBaromVisibWave heightAir tempDewpointWater temp
2016-Jun-30 13:32N 51°17' E 004°22'0 0.0
2016-Jun-30 12:29N 51°17' E 004°22'0 0.0
2016-Jun-30 11:32N 51°17' E 004°22'0 0.0
2016-Jun-30 10:32N 51°17' E 004°22'0 0.0
2016-Jun-30 09:32N 51°17' E 004°22'0 0.0
2016-Jun-30 08:32N 51°17' E 004°22'0 0.0
2016-Jun-30 07:29N 51°17' E 004°22'0 0.0
2016-Jun-30 06:32N 51°17' E 004°22'0 0.0
2016-Jun-30 05:32N 51°17' E 004°22'0 0.0
2016-Jun-30 04:32N 51°17' E 004°22'0 0.0
2016-Jun-30 03:32N 51°17' E 004°22'0 0.0
2016-Jun-30 02:32N 51°17' E 004°22'0 0.0
2016-Jun-30 01:32N 51°17' E 004°22'0 0.0
2016-Jun-30 00:29N 51°17' E 004°22'0 0.0
2016-Jun-29 23:32N 51°17' E 004°22'0 0.0
2016-Jun-29 22:32N 51°17' E 004°22'0 0.0
2016-Jun-29 21:32N 51°17' E 004°22'0 0.0
2016-Jun-29 20:32N 51°17' E 004°22'0 0.0
2016-Jun-29 19:32N 51°17' E 004°22'2 1.6
2016-Jun-29 18:33N 51°17' E 004°20'2 1.7
2016-Jun-29 17:33N 51°18' E 004°18'3 2.9
2016-Jun-29 16:33N 51°20' E 004°16'5 5.2
2016-Jun-29 15:34N 51°22' E 004°09'7 7.1
2016-Jun-29 14:34N 51°24' E 003°58'9 9.4
2016-Jun-29 13:34N 51°23' E 003°43'8 8.0
2016-Jun-29 12:34N 51°25' E 003°30'9 9.3
2016-Jun-29 11:33N 51°25' E 003°15'1111.1
2016-Jun-29 10:34N 51°23' E 002°58'1311.0
2016-Jun-29 09:24N 51°21' E 002°37'1 0.9
2016-Jun-29 08:26N 51°20' E 002°36'0 0.0
2016-Jun-29 07:29N 51°20' E 002°36'0 0.0
2016-Jun-29 06:17N 51°20' E 002°36'0 0.0
2016-Jun-29 04:32N 51°20' E 002°36'0 0.0
2016-Jun-29 03:29N 51°20' E 002°36'0 0.0
2016-Jun-29 02:20N 51°20' E 002°36'0 0.1
2016-Jun-29 01:14N 51°20' E 002°36'0 0.0
2016-Jun-29 00:32N 51°20' E 002°36'0 0.0
2016-Jun-28 23:32N 51°20' E 002°36'0 0.0
2016-Jun-28 22:29N 51°20' E 002°36'0 0.0
2016-Jun-28 21:26N 51°20' E 002°36'0 0.0
2016-Jun-28 20:23N 51°20' E 002°36'0 0.0
2016-Jun-28 19:29N 51°20' E 002°36'0 0.0
2016-Jun-28 18:26N 51°20' E 002°36'0 0.0
2016-Jun-28 17:23N 51°20' E 002°36'0 0.0
2016-Jun-28 16:29N 51°20' E 002°36'0 0.1
2016-Jun-28 15:17N 51°20' E 002°36'0 0.0
2016-Jun-28 14:32N 51°20' E 002°36'0 0.1
2016-Jun-28 13:32N 51°20' E 002°36'0 0.1
2016-Jun-28 12:29N 51°20' E 002°36'0 0.0
2016-Jun-28 11:26N 51°20' E 002°36'0 0.0
2016-Jun-28 10:22N 51°20' E 002°36'0 0.1
2016-Jun-28 09:31N 51°20' E 002°36'0 0.0
2016-Jun-28 08:31N 51°20' E 002°36'0 0.0
2016-Jun-28 07:26N 51°20' E 002°36'0 0.0
2016-Jun-28 06:28N 51°20' E 002°36'0 0.0
2016-Jun-28 04:28N 51°20' E 002°36'0 0.1
2016-Jun-28 03:28N 51°20' E 002°36'0 0.1
2016-Jun-28 02:31N 51°20' E 002°36'0 0.0
2016-Jun-28 01:28N 51°20' E 002°36'0 0.0
2016-Jun-28 00:16N 51°20' E 002°36'0 0.0
2016-Jun-27 23:04N 51°20' E 002°36'0 0.1
2016-Jun-27 22:28N 51°20' E 002°36'0 0.1
2016-Jun-27 21:31N 51°20' E 002°36'0 0.0
2016-Jun-27 20:31N 51°20' E 002°36'0 0.0
2016-Jun-27 19:31N 51°20' E 002°36'0 0.0
2016-Jun-27 18:31N 51°20' E 002°36'0 0.0
2016-Jun-27 17:28N 51°20' E 002°36'0 0.0
2016-Jun-27 16:28N 51°20' E 002°36'0 0.1
2016-Jun-27 15:22N 51°20' E 002°36'0 0.1
2016-Jun-27 14:31N 51°20' E 002°36'0 0.0
2016-Jun-27 13:31N 51°20' E 002°36'0 0.0
2016-Jun-27 12:19N 51°20' E 002°36'0 0.0
2016-Jun-27 11:28N 51°20' E 002°36'0 0.2
2016-Jun-27 10:19N 51°20' E 002°36'0 0.0
2016-Jun-27 09:31N 51°20' E 002°36'0 0.0
2016-Jun-27 08:31N 51°20' E 002°36'0 0.0
2016-Jun-27 07:31N 51°20' E 002°36'0 0.0
2016-Jun-27 06:32N 51°20' E 002°36'0 0.0
2016-Jun-27 05:23N 51°20' E 002°36'0 0.0
2016-Jun-27 04:32N 51°20' E 002°36'0 0.0
2016-Jun-27 03:32N 51°20' E 002°36'0 0.0
2016-Jun-27 02:32N 51°20' E 002°36'0 0.1
2016-Jun-27 01:17N 51°20' E 002°36'0 0.0
2016-Jun-27 00:32N 51°20' E 002°36'0 0.1
2016-Jun-26 23:23N 51°20' E 002°36'0 0.0
2016-Jun-26 22:20N 51°20' E 002°36'0 0.0
2016-Jun-26 21:32N 51°20' E 002°36'0 0.0
2016-Jun-26 20:32N 51°20' E 002°36'0 0.0
2016-Jun-26 19:32N 51°20' E 002°36'0 0.0
2016-Jun-26 18:32N 51°20' E 002°36'0 0.0
2016-Jun-26 17:29N 51°20' E 002°36'0 0.0
2016-Jun-26 16:29N 51°20' E 002°36'0 0.0
2016-Jun-26 15:26N 51°20' E 002°36'0 0.1
2016-Jun-26 14:32N 51°20' E 002°36'0 0.1
2016-Jun-26 13:23N 51°20' E 002°36'3 3.1
2016-Jun-26 12:33N 51°22' E 002°32'1211.8
2016-Jun-26 11:31N 51°17' E 002°15'1111.5
2016-Jun-26 10:33N 51°11' E 002°00'1211.8
2016-Jun-26 09:34N 51°04' E 001°45'1313.1
2016-Jun-26 08:33N 51°03' E 002°06'4 0.5
2016-Jun-26 01:08N 51°01' E 002°11'0 0.0
2016-Jun-25 18:26N 51°01' E 002°11'0 0.0
2016-Jun-25 16:26N 51°01' E 002°11'0 0.0
2016-Jun-25 14:20N 51°01' E 002°11'0 0.0
2016-Jun-25 12:26N 51°01' E 002°11'0 0.0
2016-Jun-25 11:26N 51°01' E 002°11'0 0.0
2016-Jun-25 10:32N 51°01' E 002°11'0 0.0
2016-Jun-25 09:26N 51°01' E 002°11'0 0.0
2016-Jun-25 08:26N 51°01' E 002°11'0 0.0
2016-Jun-25 07:32N 51°01' E 002°11'0 0.0
2016-Jun-25 06:17N 51°01' E 002°11'0 0.0
2016-Jun-25 04:14N 51°01' E 002°11'0 0.0
2016-Jun-25 01:13N 51°01' E 002°11'0 0.0
2016-Jun-25 00:24N 51°01' E 002°11'0 0.0
2016-Jun-24 23:28N 51°01' E 002°11'0 0.0
2016-Jun-24 22:32N 51°01' E 002°11'0 0.0
2016-Jun-24 19:28N 51°01' E 002°11'0 0.0
2016-Jun-24 18:22N 51°01' E 002°11'0 0.0
2016-Jun-24 17:31N 51°01' E 002°11'0 0.0
2016-Jun-24 16:31N 51°01' E 002°11'0 0.0
2016-Jun-24 15:19N 51°01' E 002°11'0 0.0
2016-Jun-24 14:31N 51°01' E 002°11'0 0.0
2016-Jun-24 13:28N 51°01' E 002°11'0 0.0
2016-Jun-24 12:31N 51°01' E 002°11'0 0.0
2016-Jun-24 11:31N 51°01' E 002°11'0 0.0
2016-Jun-24 10:31N 51°01' E 002°11'0 0.0
2016-Jun-24 09:18N 51°01' E 002°11'0 0.0
2016-Jun-24 08:25N 51°01' E 002°11'0 0.0
2016-Jun-24 07:28N 51°01' E 002°11'0 0.0
2016-Jun-24 04:31N 51°01' E 002°11'0 0.0
2016-Jun-24 03:31N 51°01' E 002°11'0 0.0
2016-Jun-24 01:25N 51°01' E 002°11'0 0.0
2016-Jun-24 00:16N 51°01' E 002°11'0 0.0
2016-Jun-23 23:18N 51°01' E 002°11'0 0.0
2016-Jun-23 22:28N 51°01' E 002°11'0 0.0
2016-Jun-23 21:07N 51°01' E 002°11'0 0.0
2016-Jun-23 19:31N 51°01' E 002°11'0 0.0
2016-Jun-23 18:27N 51°01' E 002°11'0 0.0
2016-Jun-23 17:31N 51°01' E 002°11'0 0.0
2016-Jun-23 16:33N 51°01' E 002°11'0 0.0
2016-Jun-23 15:33N 51°01' E 002°11'0 0.0
2016-Jun-23 14:33N 51°01' E 002°11'0 0.0
2016-Jun-23 12:21N 51°01' E 002°11'0 0.0
2016-Jun-23 11:18N 51°01' E 002°11'0 0.0
2016-Jun-23 09:24N 51°01' E 002°11'0 0.0
2016-Jun-23 08:27N 51°01' E 002°11'0 0.0
2016-Jun-23 07:33N 51°01' E 002°11'0 0.0
2016-Jun-23 03:15N 51°01' E 002°11'0 0.0
2016-Jun-23 02:18N 51°01' E 002°11'0 0.0
2016-Jun-23 01:30N 51°01' E 002°11'0 0.0
2016-Jun-23 00:03N 51°01' E 002°11'0 0.0
2016-Jun-22 23:30N 51°01' E 002°11'0 0.0
2016-Jun-22 22:30N 51°01' E 002°11'0 0.0
2016-Jun-22 18:12N 51°01' E 002°11'0 0.0
2016-Jun-22 17:17N 51°01' E 002°11'0 0.0
2016-Jun-22 16:24N 51°01' E 002°11'0 0.0
2016-Jun-22 11:30N 51°01' E 002°11'0 0.0
2016-Jun-22 10:15N 51°01' E 002°11'0 0.0
2016-Jun-22 09:21N 51°01' E 002°11'0 0.0
2016-Jun-22 08:33N 51°01' E 002°11'0 0.0
2016-Jun-22 07:32N 51°01' E 002°11'0 0.0
2016-Jun-22 06:33N 51°01' E 002°11'0 0.0
2016-Jun-22 04:17N 51°01' E 002°11'0 0.0
2016-Jun-22 03:23N 51°01' E 002°11'0 0.0
2016-Jun-22 02:20N 51°01' E 002°11'0 0.0
2016-Jun-22 01:29N 51°01' E 002°11'0 0.0
2016-Jun-22 00:32N 51°01' E 002°11'0 0.0
2016-Jun-21 23:32N 51°01' E 002°11'0 0.0
2016-Jun-21 20:29N 51°01' E 002°11'0 0.0
2016-Jun-21 19:29N 51°01' E 002°11'0 0.0
2016-Jun-21 18:32N 51°01' E 002°11'0 0.0
2016-Jun-21 17:29N 51°01' E 002°11'0 0.0
2016-Jun-21 15:32N 51°01' E 002°11'0 0.0
2016-Jun-21 14:29N 51°01' E 002°11'0 0.0
2016-Jun-21 13:20N 51°01' E 002°11'0 0.0
2016-Jun-21 11:17N 51°01' E 002°11'0 0.0
2016-Jun-21 07:20N 51°01' E 002°11'0 0.0
2016-Jun-21 01:23N 51°01' E 002°11'0 0.0
2016-Jun-21 00:14N 51°01' E 002°11'0 0.0
2016-Jun-20 23:14N 51°01' E 002°11'0 0.0
2016-Jun-20 21:28N 51°01' E 002°11'0 0.0
2016-Jun-20 20:10N 51°01' E 002°11'0 0.0
2016-Jun-20 19:28N 51°01' E 002°11'0 0.0
2016-Jun-20 18:20N 51°01' E 002°11'0 0.0
2016-Jun-20 14:28N 51°01' E 002°11'  
Track history (hours):
 
Tides and Currents Weather Stations Pressure Air Temp Water Temp Dewpoint Dewpoint Depression Visibility Wind Speed Wind Dir Waves Ship Positions

Tracer

Last reported at 2016-Jun-30 13:32 UTC. Time now 2016-Jun-30 14:08 UTC.
Position N 51°17' E 004°22'.

Length 101 m; beam 20 m.

Type: Cargo ship. MMSI: 245949000.

Date/timePositionNaut miles runAvg speedWind from/ knotsBaromVisibWave heightAir tempDewpointWater temp
2016-Jun-30 13:32N 51°17' E 004°22'0 0.0
2016-Jun-30 12:29N 51°17' E 004°22'0 0.0
2016-Jun-30 11:32N 51°17' E 004°22'0 0.0
2016-Jun-30 10:32N 51°17' E 004°22'0 0.0
2016-Jun-30 09:32N 51°17' E 004°22'0 0.0
2016-Jun-30 08:32N 51°17' E 004°22'0 0.0
2016-Jun-30 07:29N 51°17' E 004°22'0 0.0
2016-Jun-30 06:32N 51°17' E 004°22'0 0.0
2016-Jun-30 05:32N 51°17' E 004°22'0 0.0
2016-Jun-30 04:32N 51°17' E 004°22'0 0.0
2016-Jun-30 03:32N 51°17' E 004°22'0 0.0
2016-Jun-30 02:32N 51°17' E 004°22'0 0.0
2016-Jun-30 01:32N 51°17' E 004°22'0 0.0
2016-Jun-30 00:29N 51°17' E 004°22'0 0.0
2016-Jun-29 23:32N 51°17' E 004°22'0 0.0
2016-Jun-29 22:32N 51°17' E 004°22'0 0.0
2016-Jun-29 21:32N 51°17' E 004°22'0 0.0
2016-Jun-29 20:32N 51°17' E 004°22'0 0.0
2016-Jun-29 19:32N 51°17' E 004°22'2 1.6
2016-Jun-29 18:33N 51°17' E 004°20'2 1.7
2016-Jun-29 17:33N 51°18' E 004°18'3 2.9
2016-Jun-29 16:33N 51°20' E 004°16'5 5.2
2016-Jun-29 15:34N 51°22' E 004°09'7 7.1
2016-Jun-29 14:34N 51°24' E 003°58'9 9.4
2016-Jun-29 13:34N 51°23' E 003°43'8 8.0
2016-Jun-29 12:34N 51°25' E 003°30'9 9.3
2016-Jun-29 11:33N 51°25' E 003°15'1111.1
2016-Jun-29 10:34N 51°23' E 002°58'1311.0
2016-Jun-29 09:24N 51°21' E 002°37'1 0.9
2016-Jun-29 08:26N 51°20' E 002°36'0 0.0
2016-Jun-29 07:29N 51°20' E 002°36'0 0.0
2016-Jun-29 06:17N 51°20' E 002°36'0 0.0
2016-Jun-29 04:32N 51°20' E 002°36'0 0.0
2016-Jun-29 03:29N 51°20' E 002°36'0 0.0
2016-Jun-29 02:20N 51°20' E 002°36'0 0.1
2016-Jun-29 01:14N 51°20' E 002°36'0 0.0
2016-Jun-29 00:32N 51°20' E 002°36'0 0.0
2016-Jun-28 23:32N 51°20' E 002°36'0 0.0
2016-Jun-28 22:29N 51°20' E 002°36'0 0.0
2016-Jun-28 21:26N 51°20' E 002°36'0 0.0
2016-Jun-28 20:23N 51°20' E 002°36'0 0.0
2016-Jun-28 19:29N 51°20' E 002°36'0 0.0
2016-Jun-28 18:26N 51°20' E 002°36'0 0.0
2016-Jun-28 17:23N 51°20' E 002°36'0 0.0
2016-Jun-28 16:29N 51°20' E 002°36'0 0.1
2016-Jun-28 15:17N 51°20' E 002°36'0 0.0
2016-Jun-28 14:32N 51°20' E 002°36'0 0.1
2016-Jun-28 13:32N 51°20' E 002°36'0 0.1
2016-Jun-28 12:29N 51°20' E 002°36'0 0.0
2016-Jun-28 11:26N 51°20' E 002°36'0 0.0
2016-Jun-28 10:22N 51°20' E 002°36'0 0.1
2016-Jun-28 09:31N 51°20' E 002°36'0 0.0
2016-Jun-28 08:31N 51°20' E 002°36'0 0.0
2016-Jun-28 07:26N 51°20' E 002°36'0 0.0
2016-Jun-28 06:28N 51°20' E 002°36'0 0.0
2016-Jun-28 04:28N 51°20' E 002°36'0 0.1
2016-Jun-28 03:28N 51°20' E 002°36'0 0.1
2016-Jun-28 02:31N 51°20' E 002°36'0 0.0
2016-Jun-28 01:28N 51°20' E 002°36'0 0.0
2016-Jun-28 00:16N 51°20' E 002°36'0 0.0
2016-Jun-27 23:04N 51°20' E 002°36'0 0.1
2016-Jun-27 22:28N 51°20' E 002°36'0 0.1
2016-Jun-27 21:31N 51°20' E 002°36'0 0.0
2016-Jun-27 20:31N 51°20' E 002°36'0 0.0
2016-Jun-27 19:31N 51°20' E 002°36'0 0.0
2016-Jun-27 18:31N 51°20' E 002°36'0 0.0
2016-Jun-27 17:28N 51°20' E 002°36'0 0.0
2016-Jun-27 16:28N 51°20' E 002°36'0 0.1
2016-Jun-27 15:22N 51°20' E 002°36'0 0.1
2016-Jun-27 14:31N 51°20' E 002°36'0 0.0
2016-Jun-27 13:31N 51°20' E 002°36'0 0.0
2016-Jun-27 12:19N 51°20' E 002°36'0 0.0
2016-Jun-27 11:28N 51°20' E 002°36'0 0.2
2016-Jun-27 10:19N 51°20' E 002°36'0 0.0
2016-Jun-27 09:31N 51°20' E 002°36'0 0.0
2016-Jun-27 08:31N 51°20' E 002°36'0 0.0
2016-Jun-27 07:31N 51°20' E 002°36'0 0.0
2016-Jun-27 06:32N 51°20' E 002°36'0 0.0
2016-Jun-27 05:23N 51°20' E 002°36'0 0.0
2016-Jun-27 04:32N 51°20' E 002°36'0 0.0
2016-Jun-27 03:32N 51°20' E 002°36'0 0.0
2016-Jun-27 02:32N 51°20' E 002°36'0 0.1
2016-Jun-27 01:17N 51°20' E 002°36'0 0.0
2016-Jun-27 00:32N 51°20' E 002°36'0 0.1
2016-Jun-26 23:23N 51°20' E 002°36'0 0.0
2016-Jun-26 22:20N 51°20' E 002°36'0 0.0
2016-Jun-26 21:32N 51°20' E 002°36'0 0.0
2016-Jun-26 20:32N 51°20' E 002°36'0 0.0
2016-Jun-26 19:32N 51°20' E 002°36'0 0.0
2016-Jun-26 18:32N 51°20' E 002°36'0 0.0
2016-Jun-26 17:29N 51°20' E 002°36'0 0.0
2016-Jun-26 16:29N 51°20' E 002°36'0 0.0
2016-Jun-26 15:26N 51°20' E 002°36'0 0.1
2016-Jun-26 14:32N 51°20' E 002°36'0 0.1
2016-Jun-26 13:23N 51°20' E 002°36'3 3.1
2016-Jun-26 12:33N 51°22' E 002°32'1211.8
2016-Jun-26 11:31N 51°17' E 002°15'1111.5
2016-Jun-26 10:33N 51°11' E 002°00'1211.8
2016-Jun-26 09:34N 51°04' E 001°45'1313.1
2016-Jun-26 08:33N 51°03' E 002°06'4 0.5
2016-Jun-26 01:08N 51°01' E 002°11'0 0.0
2016-Jun-25 18:26N 51°01' E 002°11'0 0.0
2016-Jun-25 16:26N 51°01' E 002°11'0 0.0
2016-Jun-25 14:20N 51°01' E 002°11'0 0.0
2016-Jun-25 12:26N 51°01' E 002°11'0 0.0
2016-Jun-25 11:26N 51°01' E 002°11'0 0.0
2016-Jun-25 10:32N 51°01' E 002°11'0 0.0
2016-Jun-25 09:26N 51°01' E 002°11'0 0.0
2016-Jun-25 08:26N 51°01' E 002°11'0 0.0
2016-Jun-25 07:32N 51°01' E 002°11'0 0.0
2016-Jun-25 06:17N 51°01' E 002°11'0 0.0
2016-Jun-25 04:14N 51°01' E 002°11'0 0.0
2016-Jun-25 01:13N 51°01' E 002°11'0 0.0
2016-Jun-25 00:24N 51°01' E 002°11'0 0.0
2016-Jun-24 23:28N 51°01' E 002°11'0 0.0
2016-Jun-24 22:32N 51°01' E 002°11'0 0.0
2016-Jun-24 19:28N 51°01' E 002°11'0 0.0
2016-Jun-24 18:22N 51°01' E 002°11'0 0.0
2016-Jun-24 17:31N 51°01' E 002°11'0 0.0
2016-Jun-24 16:31N 51°01' E 002°11'0 0.0
2016-Jun-24 15:19N 51°01' E 002°11'0 0.0
2016-Jun-24 14:31N 51°01' E 002°11'0 0.0
2016-Jun-24 13:28N 51°01' E 002°11'0 0.0
2016-Jun-24 12:31N 51°01' E 002°11'0 0.0
2016-Jun-24 11:31N 51°01' E 002°11'0 0.0
2016-Jun-24 10:31N 51°01' E 002°11'0 0.0
2016-Jun-24 09:18N 51°01' E 002°11'0 0.0
2016-Jun-24 08:25N 51°01' E 002°11'0 0.0
2016-Jun-24 07:28N 51°01' E 002°11'0 0.0
2016-Jun-24 04:31N 51°01' E 002°11'0 0.0
2016-Jun-24 03:31N 51°01' E 002°11'0 0.0
2016-Jun-24 01:25N 51°01' E 002°11'0 0.0
2016-Jun-24 00:16N 51°01' E 002°11'0 0.0
2016-Jun-23 23:18N 51°01' E 002°11'0 0.0
2016-Jun-23 22:28N 51°01' E 002°11'0 0.0
2016-Jun-23 21:07N 51°01' E 002°11'0 0.0
2016-Jun-23 19:31N 51°01' E 002°11'0 0.0
2016-Jun-23 18:27N 51°01' E 002°11'0 0.0
2016-Jun-23 17:31N 51°01' E 002°11'0 0.0
2016-Jun-23 16:33N 51°01' E 002°11'0 0.0
2016-Jun-23 15:33N 51°01' E 002°11'0 0.0
2016-Jun-23 14:33N 51°01' E 002°11'0 0.0
2016-Jun-23 12:21N 51°01' E 002°11'0 0.0
2016-Jun-23 11:18N 51°01' E 002°11'0 0.0
2016-Jun-23 09:24N 51°01' E 002°11'0 0.0
2016-Jun-23 08:27N 51°01' E 002°11'0 0.0
2016-Jun-23 07:33N 51°01' E 002°11'0 0.0
2016-Jun-23 03:15N 51°01' E 002°11'0 0.0
2016-Jun-23 02:18N 51°01' E 002°11'0 0.0
2016-Jun-23 01:30N 51°01' E 002°11'0 0.0
2016-Jun-23 00:03N 51°01' E 002°11'0 0.0
2016-Jun-22 23:30N 51°01' E 002°11'0 0.0
2016-Jun-22 22:30N 51°01' E 002°11'0 0.0
2016-Jun-22 18:12N 51°01' E 002°11'0 0.0
2016-Jun-22 17:17N 51°01' E 002°11'0 0.0
2016-Jun-22 16:24N 51°01' E 002°11'0 0.0
2016-Jun-22 11:30N 51°01' E 002°11'0 0.0
2016-Jun-22 10:15N 51°01' E 002°11'0 0.0
2016-Jun-22 09:21N 51°01' E 002°11'0 0.0
2016-Jun-22 08:33N 51°01' E 002°11'0 0.0
2016-Jun-22 07:32N 51°01' E 002°11'0 0.0
2016-Jun-22 06:33N 51°01' E 002°11'0 0.0
2016-Jun-22 04:17N 51°01' E 002°11'0 0.0
2016-Jun-22 03:23N 51°01' E 002°11'0 0.0
2016-Jun-22 02:20N 51°01' E 002°11'0 0.0
2016-Jun-22 01:29N 51°01' E 002°11'0 0.0
2016-Jun-22 00:32N 51°01' E 002°11'0 0.0
2016-Jun-21 23:32N 51°01' E 002°11'0 0.0
2016-Jun-21 20:29N 51°01' E 002°11'0 0.0
2016-Jun-21 19:29N 51°01' E 002°11'0 0.0
2016-Jun-21 18:32N 51°01' E 002°11'0 0.0
2016-Jun-21 17:29N 51°01' E 002°11'0 0.0
2016-Jun-21 15:32N 51°01' E 002°11'0 0.0
2016-Jun-21 14:29N 51°01' E 002°11'0 0.0
2016-Jun-21 13:20N 51°01' E 002°11'0 0.0
2016-Jun-21 11:17N 51°01' E 002°11'0 0.0
2016-Jun-21 07:20N 51°01' E 002°11'0 0.0
2016-Jun-21 01:23N 51°01' E 002°11'0 0.0
2016-Jun-21 00:14N 51°01' E 002°11'0 0.0
2016-Jun-20 23:14N 51°01' E 002°11'0 0.0
2016-Jun-20 21:28N 51°01' E 002°11'0 0.0
2016-Jun-20 20:10N 51°01' E 002°11'0 0.0
2016-Jun-20 19:28N 51°01' E 002°11'0 0.0
2016-Jun-20 18:20N 51°01' E 002°11'0 0.0
2016-Jun-20 14:28N 51°01' E 002°11'  

Dump ship's entire track history